createdAt,value
2023-03-04T00:01:51.842Z,2.40
2023-03-04T00:06:55.872Z,2.47
2023-03-04T00:11:58.553Z,2.45
2023-03-04T00:17:03.639Z,2.45
2023-03-04T00:22:07.666Z,2.47
2023-03-04T00:27:10.377Z,2.41
2023-03-04T00:32:13.184Z,2.50
2023-03-04T00:37:17.294Z,2.51
2023-03-04T00:42:19.991Z,2.58
2023-03-04T00:47:22.676Z,2.55
2023-03-04T00:52:26.865Z,2.56
2023-03-04T00:57:29.576Z,2.62
2023-03-04T01:02:32.343Z,2.65
2023-03-04T01:07:36.448Z,2.63
2023-03-04T01:12:40.139Z,2.67
2023-03-04T01:17:43.063Z,2.68
2023-03-04T01:22:47.184Z,2.72
2023-03-04T01:27:50.785Z,2.71
2023-03-04T01:32:55.759Z,2.77
2023-03-04T01:37:59.805Z,2.76
2023-03-04T01:43:02.554Z,2.77
2023-03-04T01:48:05.716Z,2.71
2023-03-04T01:53:18.187Z,2.77
2023-03-04T01:58:20.990Z,2.84
2023-03-04T02:03:24.007Z,3.00
2023-03-04T02:08:28.090Z,3.16
2023-03-04T02:13:31.354Z,3.16
2023-03-04T02:18:34.240Z,3.21
2023-03-04T02:23:42.535Z,3.19
2023-03-04T02:28:47.574Z,3.19
2023-03-04T02:33:50.507Z,3.23
2023-03-04T02:38:54.873Z,3.24
2023-03-04T02:43:59.804Z,3.27
2023-03-04T02:49:03.582Z,3.22
2023-03-04T02:54:06.785Z,3.26
2023-03-04T02:59:10.869Z,3.27
2023-03-04T03:04:13.857Z,3.26
2023-03-04T03:09:18.306Z,3.30
2023-03-04T03:14:22.605Z,3.33
2023-03-04T03:19:25.661Z,3.32
2023-03-04T03:24:30.030Z,3.29
2023-03-04T03:29:34.150Z,3.31
2023-03-04T03:34:37.084Z,3.30
2023-03-04T03:39:39.964Z,3.38
2023-03-04T03:44:44.092Z,3.35
2023-03-04T03:49:46.866Z,3.35
2023-03-04T03:54:49.710Z,3.33
2023-03-04T03:59:53.824Z,3.30
2023-03-04T04:04:56.594Z,3.40
2023-03-04T04:09:59.337Z,3.38
2023-03-04T04:15:03.558Z,3.36
2023-03-04T04:20:07.743Z,3.37
2023-03-04T04:25:11.352Z,3.42
2023-03-04T04:30:15.835Z,3.38
2023-03-04T04:35:18.768Z,3.40
2023-03-04T04:40:21.525Z,3.39
2023-03-04T04:45:25.834Z,3.38
2023-03-04T04:50:30.721Z,3.38
2023-03-04T04:55:35.360Z,3.37
2023-03-04T05:00:39.469Z,3.38
2023-03-04T05:05:42.230Z,3.38
2023-03-04T05:10:44.946Z,3.39
2023-03-04T05:15:49.119Z,3.38
2023-03-04T05:20:52.973Z,3.38
2023-03-04T05:25:56.015Z,3.39
2023-03-04T05:31:01.280Z,3.36
2023-03-04T05:36:04.432Z,3.35
2023-03-04T05:41:08.135Z,3.35
2023-03-04T05:46:14.885Z,3.32
2023-03-04T05:51:17.612Z,3.34
2023-03-04T05:56:21.175Z,3.35
2023-03-04T06:01:25.387Z,3.32
2023-03-04T06:06:28.220Z,3.32
2023-03-04T06:11:31.306Z,3.36
2023-03-04T06:16:35.589Z,3.38
2023-03-04T06:21:38.403Z,3.39
2023-03-04T06:26:41.146Z,3.47
2023-03-04T06:31:45.240Z,3.45
2023-03-04T06:36:48.049Z,3.47
2023-03-04T06:41:50.802Z,3.42
2023-03-04T06:46:54.992Z,3.41
2023-03-04T06:51:58.150Z,3.42
2023-03-04T06:57:00.891Z,3.43
2023-03-04T07:02:05.024Z,3.43
2023-03-04T07:07:08.208Z,3.40
2023-03-04T07:12:11.001Z,3.42
2023-03-04T07:17:15.148Z,3.41
2023-03-04T07:22:17.873Z,3.50
2023-03-04T07:27:20.617Z,3.42
2023-03-04T07:32:24.740Z,3.55
2023-03-04T07:37:27.439Z,3.57
2023-03-04T07:42:30.132Z,3.89
2023-03-04T07:47:41.622Z,3.86
2023-03-04T07:52:46.674Z,3.91
2023-03-04T07:57:49.396Z,4.18
2023-03-04T08:02:53.503Z,3.98
2023-03-04T08:07:57.899Z,3.93
2023-03-04T08:13:00.669Z,3.79
2023-03-04T08:18:04.792Z,3.74
2023-03-04T08:23:07.532Z,3.77
2023-03-04T08:28:12.938Z,3.80
2023-03-04T08:33:17.062Z,3.80
2023-03-04T08:38:19.816Z,3.74
2023-03-04T08:43:22.932Z,3.88
2023-03-04T08:48:27.115Z,3.88
2023-03-04T08:53:29.925Z,4.05
2023-03-04T08:58:32.698Z,4.04
2023-03-04T09:03:37.257Z,4.14
2023-03-04T09:08:40.044Z,4.26
2023-03-04T09:13:42.994Z,4.36
2023-03-04T09:18:47.203Z,4.36
2023-03-04T09:23:50.115Z,4.16
2023-03-04T09:28:56.172Z,4.07
2023-03-04T09:34:00.807Z,4.22
2023-03-04T09:39:05.226Z,4.18
2023-03-04T09:44:22.719Z,4.46
2023-03-04T09:49:27.313Z,4.55
2023-03-04T09:54:54.970Z,4.48
2023-03-04T10:00:12.273Z,4.52
2023-03-04T10:05:21.852Z,4.60
2023-03-04T10:10:27.391Z,4.66
2023-03-04T10:15:36.681Z,4.70
2023-03-04T10:20:50.868Z,4.55
2023-03-04T10:25:54.758Z,4.72
2023-03-04T10:31:00.837Z,4.75
2023-03-04T10:36:07.367Z,4.61
2023-03-04T10:41:13.856Z,4.57
2023-03-04T10:46:16.824Z,4.56
2023-03-04T10:51:22.960Z,4.59
2023-03-04T10:56:31.881Z,4.45
2023-03-04T11:01:34.947Z,4.70
2023-03-04T11:06:42.651Z,4.88
2023-03-04T11:11:46.025Z,4.79
2023-03-04T11:16:54.945Z,4.89
2023-03-04T11:21:59.847Z,4.95
2023-03-04T11:27:05.234Z,4.88
2023-03-04T11:32:11.277Z,4.81
2023-03-04T11:37:19.611Z,4.90
2023-03-04T11:42:30.309Z,4.89
2023-03-04T11:47:50.250Z,4.84
2023-03-04T11:53:18.665Z,4.88
2023-03-04T11:58:40.692Z,5.03
2023-03-04T12:04:04.344Z,5.11
2023-03-04T12:09:27.357Z,5.18
2023-03-04T12:14:34.562Z,5.01
2023-03-04T12:19:46.747Z,5.16
2023-03-04T12:25:11.558Z,5.13
2023-03-04T12:30:26.374Z,5.26
2023-03-04T12:35:34.947Z,5.16
2023-03-04T12:40:45.597Z,5.12
2023-03-04T12:45:52.450Z,5.13
2023-03-04T12:51:05.834Z,5.18
2023-03-04T12:56:20.987Z,5.31
2023-03-04T13:01:27.832Z,5.65
2023-03-04T13:06:41.146Z,5.73
2023-03-04T13:11:58.502Z,5.71
2023-03-04T13:17:03.429Z,5.58
2023-03-04T13:22:28.215Z,5.67
2023-03-04T13:27:49.990Z,5.68
2023-03-04T13:32:52.755Z,5.60
2023-03-04T13:37:59.667Z,5.50
2023-03-04T13:43:29.394Z,5.43
2023-03-04T13:48:36.323Z,5.58
2023-03-04T13:53:47.234Z,5.76
2023-03-04T13:58:52.639Z,5.63
2023-03-04T14:03:55.749Z,5.61
2023-03-04T14:08:58.976Z,5.65
2023-03-04T14:14:06.406Z,5.82
2023-03-04T14:19:16.664Z,5.85
2023-03-04T14:24:21.029Z,5.78
2023-03-04T14:29:27.092Z,5.81
2023-03-04T14:34:33.154Z,5.81
2023-03-04T14:39:37.919Z,5.78
2023-03-04T14:44:48.404Z,5.65
2023-03-04T14:49:52.085Z,5.57
2023-03-04T14:55:02.051Z,5.51
2023-03-04T15:00:27.449Z,5.42
2023-03-04T15:05:31.867Z,5.30
2023-03-04T15:10:36.802Z,5.23
2023-03-04T15:15:43.722Z,5.23
2023-03-04T15:20:54.699Z,5.36
2023-03-04T15:25:59.268Z,5.38
2023-03-04T15:31:03.821Z,5.37
2023-03-04T15:36:08.460Z,5.40
2023-03-04T15:41:12.879Z,5.40
2023-03-04T15:46:18.029Z,5.37
2023-03-04T15:51:22.214Z,5.37
2023-03-04T15:56:26.505Z,5.32
2023-03-04T16:01:32.033Z,5.32
2023-03-04T16:06:34.753Z,5.31
2023-03-04T16:11:42.114Z,5.26
2023-03-04T16:16:46.859Z,5.24
2023-03-04T16:21:49.616Z,5.11
2023-03-04T16:26:52.740Z,4.98
2023-03-04T16:31:56.889Z,4.89
2023-03-04T16:36:59.750Z,4.90
2023-03-04T16:42:02.621Z,4.86
2023-03-04T16:47:07.873Z,4.82
2023-03-04T16:52:18.542Z,4.75
2023-03-04T16:57:21.395Z,4.59
2023-03-04T17:02:26.721Z,4.49
2023-03-04T17:07:29.506Z,4.43
2023-03-04T17:12:32.194Z,4.37
2023-03-04T17:17:36.256Z,4.39
2023-03-04T17:22:38.992Z,4.36
2023-03-04T17:27:42.264Z,4.32
2023-03-04T17:32:46.505Z,4.31
2023-03-04T17:37:49.255Z,4.27
2023-03-04T17:42:52.007Z,4.20
2023-03-04T17:47:56.073Z,4.20
2023-03-04T17:52:58.783Z,4.19
2023-03-04T17:58:01.535Z,4.22
2023-03-04T18:03:05.613Z,4.19
2023-03-04T18:08:08.505Z,4.18
2023-03-04T18:13:11.431Z,4.17
2023-03-04T18:18:15.586Z,4.12
2023-03-04T18:23:18.290Z,4.13
2023-03-04T18:28:21.186Z,4.08
2023-03-04T18:33:25.347Z,4.06
2023-03-04T18:38:28.523Z,4.04
2023-03-04T18:43:31.361Z,3.99
2023-03-04T18:48:37.832Z,3.97
2023-03-04T18:53:40.933Z,3.97
2023-03-04T18:58:44.988Z,3.96
2023-03-04T19:03:51.021Z,4.00
2023-03-04T19:08:55.605Z,3.92
2023-03-04T19:13:58.532Z,3.89
2023-03-04T19:19:05.040Z,3.88
2023-03-04T19:24:08.492Z,3.88
2023-03-04T19:29:11.367Z,3.85
2023-03-04T19:34:15.457Z,3.80
2023-03-04T19:39:18.581Z,3.76
2023-03-04T19:44:24.314Z,3.75
2023-03-04T19:49:28.637Z,3.74
2023-03-04T19:54:31.514Z,3.72
2023-03-04T19:59:35.690Z,3.67
2023-03-04T20:04:39.893Z,3.53
2023-03-04T20:09:42.694Z,3.48
2023-03-04T20:14:45.521Z,3.28
2023-03-04T20:19:49.684Z,3.23
2023-03-04T20:24:54.792Z,3.21
2023-03-04T20:29:57.580Z,3.24
2023-03-04T20:35:01.638Z,3.20
2023-03-04T20:40:04.903Z,3.15
2023-03-04T20:45:08.906Z,3.11
2023-03-04T20:50:13.402Z,3.15
2023-03-04T20:55:16.306Z,3.15
2023-03-04T21:00:19.638Z,3.05
2023-03-04T21:05:23.801Z,3.02
2023-03-04T21:10:26.581Z,3.05
2023-03-04T21:15:29.353Z,3.03
2023-03-04T21:20:33.524Z,3.00
2023-03-04T21:25:36.258Z,3.02
2023-03-04T21:30:40.717Z,3.00
2023-03-04T21:35:45.029Z,2.99
2023-03-04T21:40:47.705Z,2.96
2023-03-04T21:45:55.276Z,2.94
2023-03-04T21:51:04.374Z,2.99
2023-03-04T21:56:07.327Z,2.93
2023-03-04T22:01:11.046Z,2.93
2023-03-04T22:06:15.844Z,2.94
2023-03-04T22:11:19.695Z,2.97
2023-03-04T22:16:23.018Z,2.91
2023-03-04T22:21:27.158Z,2.91
2023-03-04T22:26:32.551Z,2.89
2023-03-04T22:31:36.698Z,2.86
2023-03-04T22:36:42.810Z,2.86
2023-03-04T22:41:45.350Z,2.82
2023-03-04T22:46:48.239Z,2.84
2023-03-04T22:51:52.341Z,2.88
2023-03-04T22:56:55.050Z,2.89
2023-03-04T23:01:57.792Z,2.83
2023-03-04T23:07:01.959Z,2.87
2023-03-04T23:12:05.494Z,2.84
2023-03-04T23:17:08.200Z,2.82
2023-03-04T23:22:12.452Z,2.84
2023-03-04T23:27:15.150Z,2.86
2023-03-04T23:32:17.887Z,2.89
2023-03-04T23:37:23.464Z,2.87
2023-03-04T23:42:26.195Z,2.88
2023-03-04T23:47:29.412Z,2.86
2023-03-04T23:52:33.860Z,2.84
2023-03-04T23:57:36.590Z,2.85
